Map

Track Data

SID SEASON NUMBER BASIN SUBBASIN NAME ISO_TIME NATURE LAT LON WMO_WIND WMO_PRES WMO_AGENCY TRACK_TYPE DIST2LAND LANDFALL IFLAG USA_AGENCY USA_ATCF_ID USA_LAT USA_LON USA_RECORD USA_STATUS USA_WIND USA_PRES USA_SSHS USA_R34_NE USA_R34_SE USA_R34_SW USA_R34_NW USA_R50_NE USA_R50_SE USA_R50_SW USA_R50_NW USA_R64_NE USA_R64_SE USA_R64_SW USA_R64_NW USA_POCI USA_ROCI USA_RMW USA_EYE TOKYO_LAT TOKYO_LON TOKYO_GRADE TOKYO_WIND TOKYO_PRES TOKYO_R50_DIR TOKYO_R50_LONG TOKYO_R50_SHORT TOKYO_R30_DIR TOKYO_R30_LONG TOKYO_R30_SHORT TOKYO_LAND CMA_LAT CMA_LON CMA_CAT CMA_WIND CMA_PRES HKO_LAT HKO_LON HKO_CAT HKO_WIND HKO_PRES NEWDELHI_LAT NEWDELHI_LON NEWDELHI_GRADE NEWDELHI_WIND NEWDELHI_PRES NEWDELHI_CI NEWDELHI_DP NEWDELHI_POCI REUNION_LAT REUNION_LON REUNION_TYPE REUNION_WIND REUNION_PRES REUNION_TNUM REUNION_CI REUNION_RMW REUNION_R34_NE REUNION_R34_SE REUNION_R34_SW REUNION_R34_NW REUNION_R50_NE REUNION_R50_SE REUNION_R50_SW REUNION_R50_NW REUNION_R64_NE REUNION_R64_SE REUNION_R64_SW REUNION_R64_NW BOM_LAT BOM_LON BOM_TYPE BOM_WIND BOM_PRES BOM_TNUM BOM_CI BOM_RMW BOM_R34_NE BOM_R34_SE BOM_R34_SW BOM_R34_NW BOM_R50_NE BOM_R50_SE BOM_R50_SW BOM_R50_NW BOM_R64_NE BOM_R64_SE BOM_R64_SW BOM_R64_NW BOM_ROCI BOM_POCI BOM_EYE BOM_POS_METHOD BOM_PRES_METHOD NADI_LAT NADI_LON NADI_CAT NADI_WIND NADI_PRES WELLINGTON_LAT WELLINGTON_LON WELLINGTON_WIND WELLINGTON_PRES DS824_LAT DS824_LON DS824_STAGE DS824_WIND DS824_PRES TD9636_LAT TD9636_LON TD9636_STAGE TD9636_WIND TD9636_PRES TD9635_LAT TD9635_LON TD9635_WIND TD9635_PRES TD9635_ROCI NEUMANN_LAT NEUMANN_LON NEUMANN_CLASS NEUMANN_WIND NEUMANN_PRES MLC_LAT MLC_LON MLC_CLASS MLC_WIND MLC_PRES USA_GUST BOM_GUST BOM_GUST_PER REUNION_GUST REUNION_GUST_PER USA_SEAHGT USA_SEARAD_NE USA_SEARAD_SE USA_SEARAD_SW USA_SEARAD_NW STORM_SPEED STORM_DIR
1902341N09063 1902 53 NI AS NOT_NAMED 1902-12-07 00:00:00 TS 9.30000 63.3000 main 1029 1029 _________O____ -1 9.30000 63.3000 TC 34 3 92
1902341N09063 1902 53 NI AS NOT_NAMED 1902-12-07 03:00:00 TS 9.29502 63.4667 main 1050 1050 _________PO___ -1 9.29253 63.5500 TC 36 9.30000 63.3000 2 4 88
1902341N09063 1902 53 NI AS NOT_NAMED 1902-12-07 06:00:00 TS 9.31068 63.7024 main 1070 1070 _________OP___ -1 9.30000 63.8000 TC 39 9.32671 63.5561 2 5 84
1902341N09063 1902 53 NI AS NOT_NAMED 1902-12-07 09:00:00 TS 9.34256 63.9471 main 1091 1091 _________PP___ -1 9.33498 64.0500 TC 42 9.35266 63.8098 2 5 81
1902341N09063 1902 53 NI AS NOT_NAMED 1902-12-07 12:00:00 TS 9.38864 64.1793 main 1118 1118 _________OP___ -1 9.40000 64.3000 TC 45 9.37727 64.0586 2 5 78
1902341N09063 1902 53 NI AS NOT_NAMED 1902-12-07 15:00:00 TS 9.44625 64.4287 main 1139 1139 _________PO___ -1 9.49250 64.5575 TC 45 9.40000 64.3000 3 5 75
1902341N09063 1902 53 NI AS NOT_NAMED 1902-12-07 18:00:00 TS 9.51279 64.6662 main 1162 1138 _________OP___ -1 9.60000 64.8000 TC 45 9.42557 64.5324 3 5 74
1902341N09063 1902 53 NI AS NOT_NAMED 1902-12-07 21:00:00 TS 9.57119 64.8753 main 1138 1113 _________PP___ -1 9.66245 64.9926 TC 45 9.47994 64.7579 3 5 66
1902341N09063 1902 53 NI AS NOT_NAMED 1902-12-08 00:00:00 TS 9.69717 65.0897 main 1113 1085 _________OP___ -1 9.80000 65.2000 TC 45 9.59433 64.9794 3 6 52
1902341N09063 1902 53 NI AS NOT_NAMED 1902-12-08 03:00:00 TS 9.94503 65.3537 main 1075 1041 _________PO___ -1 10.0901 65.5074 TC 45 9.80000 65.2000 3 8 41
1902341N09063 1902 53 NI AS NOT_NAMED 1902-12-08 06:00:00 TS 10.3077 65.6265 main 1041 1006 _________OP___ -1 10.5000 65.8000 TC 45 10.1154 65.4531 3 9 31
1902341N09063 1902 53 NI AS NOT_NAMED 1902-12-08 09:00:00 TS 10.7463 65.8447 main 1006 960 _________PP___ -1 10.9700 65.9875 TC 45 10.5227 65.7020 3 10 22
1902341N09063 1902 53 NI AS NOT_NAMED 1902-12-08 12:00:00 TS 11.2468 66.0125 main 960 925 _________OP___ -1 11.5000 66.1000 TC 45 10.9936 65.9249 3 11 15
1902341N09063 1902 53 NI AS NOT_NAMED 1902-12-08 15:00:00 TS 11.7750 66.1325 main 921 889 _________PO___ -1 12.0500 66.1651 TC 45 11.5000 66.1000 3 11 10
1902341N09063 1902 53 NI AS NOT_NAMED 1902-12-08 18:00:00 TS 12.3204 66.2003 main 889 867 _________OP___ -1 12.6000 66.2000 TC 45 12.0408 66.2007 3 11 6
1902341N09063 1902 53 NI AS NOT_NAMED 1902-12-08 21:00:00 TS 12.8737 66.2515 main 853 833 _________PP___ -1 13.1450 66.2500 TC 45 12.6023 66.2529 3 11 5
1902341N09063 1902 53 NI AS NOT_NAMED 1902-12-09 00:00:00 TS 13.3689 66.2894 main 828 814 _________OP___ -1 13.6000 66.3000 TC 45 13.1377 66.2787 3 9 5
1902341N09063 1902 53 NI AS NOT_NAMED 1902-12-09 03:00:00 TS 13.7437 66.3250 main 814 791 _________PO___ -1 13.8875 66.3500 TC 45 13.6000 66.3000 3 7 7
1902341N09063 1902 53 NI AS NOT_NAMED 1902-12-09 06:00:00 TS 14.0145 66.3710 main 791 779 _________OP___ -1 14.1000 66.4000 TC 45 13.9290 66.3420 3 5 9
1902341N09063 1902 53 NI AS NOT_NAMED 1902-12-09 09:00:00 TS 14.2662 66.4176 main 779 762 _________PP___ -1 14.3500 66.4500 TC 45 14.1824 66.3852 3 5 11
1902341N09063 1902 53 NI AS NOT_NAMED 1902-12-09 12:00:00 TS 14.4973 66.4679 main 762 755 _________OP___ -1 14.6000 66.5000 TC 45 14.3946 66.4358 3 5 11
1902341N09063 1902 53 NI AS NOT_NAMED 1902-12-09 15:00:00 TS 14.7250 66.5175 main 755 736 _________PO___ -1 14.8500 66.5351 TC 45 14.6000 66.5000 3 5 14
1902341N09063 1902 53 NI AS NOT_NAMED 1902-12-09 18:00:00 TS 14.9831 66.5887 main 736 721 _________OP___ -1 15.1000 66.6000 TC 45 14.8662 66.5775 3 6 19
1902341N09063 1902 53 NI AS NOT_NAMED 1902-12-09 21:00:00 TS 15.2475 66.7025 main 721 703 _________PP___ -1 15.3650 66.7349 TC 45 15.1300 66.6700 3 6 26
1902341N09063 1902 53 NI AS NOT_NAMED 1902-12-10 00:00:00 TS 15.4894 66.8387 main 703 679 _________OP___ -1 15.6000 66.9000 TC 45 15.3787 66.7775 3 5 31
1902341N09063 1902 53 NI AS NOT_NAMED 1902-12-10 03:00:00 TS 15.6825 66.9750 main 679 667 _________PO___ -1 15.7650 67.0501 TC 45 15.6000 66.9000 3 4 37
1902341N09063 1902 53 NI AS NOT_NAMED 1902-12-10 06:00:00 TS 15.8394 67.1179 main 667 642 _________OP___ -1 15.9000 67.2000 TC 45 15.7788 67.0357 3 4 42
1902341N09063 1902 53 NI AS NOT_NAMED 1902-12-10 09:00:00 TS 15.9900 67.2676 main 642 627 _________PP___ -1 16.0500 67.3500 TC 45 15.9300 67.1851 3 4 45
1902341N09063 1902 53 NI AS NOT_NAMED 1902-12-10 12:00:00 TS 16.1331 67.4210 main 627 596 _________OP___ -1 16.2000 67.5000 TC 45 16.0662 67.3420 3 4 46
1902341N09063 1902 53 NI AS NOT_NAMED 1902-12-10 15:00:00 TS 16.2750 67.5750 main 596 581 _________PO___ -1 16.3500 67.6500 TC 45 16.2000 67.5000 3 4 45
1902341N09063 1902 53 NI AS NOT_NAMED 1902-12-10 18:00:00 TS 16.4086 67.7111 main 581 566 _________OP___ -1 16.5000 67.8000 TC 45 16.3173 67.6221 3 4 44
1902341N09063 1902 53 NI AS NOT_NAMED 1902-12-10 21:00:00 TS 16.5298 67.8343 main 566 535 _________PP___ -1 16.6199 67.9202 TC 45 16.4397 67.7484 3 4 44
1902341N09063 1902 53 NI AS NOT_NAMED 1902-12-11 00:00:00 TS 16.6961 68.0002 main 535 505 _________OP___ -1 16.8000 68.1000 TC 45 16.5922 67.9004 3 6 44
1902341N09063 1902 53 NI AS NOT_NAMED 1902-12-11 03:00:00 TS 16.9601 68.2637 main 490 445 _________PO___ -1 17.1201 68.4273 TC 45 16.8000 68.1000 3 8 43
1902341N09063 1902 53 NI AS NOT_NAMED 1902-12-11 06:00:00 TS 17.2943 68.5832 main 445 400 _________OP___ -1 17.5000 68.8000 TC 45 17.0885 68.3664 3 9 41
1902341N09063 1902 53 NI AS NOT_NAMED 1902-12-11 09:00:00 TS 17.6375 68.8913 main 400 345 _________PP___ -1 17.8424 69.1003 TC 45 17.4326 68.6824 3 9 40
1902341N09063 1902 53 NI AS NOT_NAMED 1902-12-11 12:00:00 TS 18.0052 69.2161 main 345 291 _________OP___ -1 18.2000 69.4000 TC 45 17.8103 69.0322 3 10 40
1902341N09063 1902 53 NI AS NOT_NAMED 1902-12-11 15:00:00 TS 18.4000 69.5675 main 286 242 _________PO___ -1 18.5999 69.7351 TC 45 18.2000 69.4000 3 10 41
1902341N09063 1902 53 NI AS NOT_NAMED 1902-12-11 18:00:00 TS 18.7622 69.9127 main 232 186 _________OP___ -1 19.0000 70.1000 TC 45 18.5839 69.7723 3 10 43
1902341N09063 1902 53 NI AS NOT_NAMED 1902-12-11 21:00:00 TS 19.1213 70.2847 main 186 146 _________PP___ -1 19.3627 70.4922 TC 45 18.9604 70.1464 3 10 45
1902341N09063 1902 53 NI AS NOT_NAMED 1902-12-12 00:00:00 TS 19.4545 70.6482 main 135 112 _________OP___ -1 19.7000 70.9000 TC 45 19.3317 70.5223 3 8 45
1902341N09063 1902 53 NI AS NOT_NAMED 1902-12-12 03:00:00 NR 19.7000 70.9000 main 112 __________O___ -1 TC 19.7000 70.9000 3 7 44

About IBTrACS Database

This database is a web-friendly format of International Best Track Archive for Climate Stewardship (IBTrACS), a global best track data archive curated by NOAA dating back to 1842.

Updated: 2021-12-01